Berlin, Wisconsin
Current Conditions -  °F | °C
As of 3:56 PM on Saturday 25 Oct 2014 (Local Time) from KY50 Reporting Station
Overcast Overcast  
Wind Chill: 65°   Ceiling: 100
Heat Index: 65°   Visibility: 10mi
Dew Point: 29°   Wind: 17mph
Humidity: 26%   Direction: 280°W
Pressure: 29.9"   Gusts: 28mph
Location:  43.97°N, 88.95°W
Report Text: KY50 252056Z AUTO 28015G24KT 10SM OVC001 18/M02 A2990 RMK AO2 TSNO 55004 T01831016 PK WND 33026/2015 SLP121
Loading
Personal Weather Stations






























Interactive Weather Map
Tropical Storm Tracking
New forecast layout! Learn more

10-Day Weather Forecast

Advertisements
Track Severe Weather on mobile